Time;durP1;ratioP1;P1;durP2;ratioP2;P2;SDS_P1;SDS_P2;PMS_P1;PMS_P2;Temp;Humidity;BMP_temperature;BMP_pressure;BME280_temperature;BME280_humidity;BME280_pressure;Samples;Min_cycle;Max_cycle;Signal;HPM_P1;HPM_P2
2022/10/23 00:00:20;;;;;;;22.33;20.63;;;;;;;;;;5143135;27;20455;-83
2022/10/23 00:02:52;;;;;;;22.03;20.53;;;;;;;;;;5143349;27;20467;-83
2022/10/23 00:05:20;;;;;;;22.20;20.90;;;;;;;;;;5144023;27;20497;-84
2022/10/23 00:07:50;;;;;;;21.43;20.13;;;;;;;;;;5144238;27;20434;-83
2022/10/23 00:10:19;;;;;;;20.63;19.50;;;;;;;;;;5144043;27;20417;-83
2022/10/23 00:12:46;;;;;;;21.20;20.00;;;;;;;;;;5143552;27;20481;-83
2022/10/23 00:15:14;;;;;;;22.00;20.50;;;;;;;;;;5144061;27;20409;-83
2022/10/23 00:17:42;;;;;;;22.00;20.70;;;;;;;;;;5143941;27;20442;-82
2022/10/23 00:20:10;;;;;;;23.07;21.10;;;;;;;;;;5143329;27;20451;-83
2022/10/23 00:22:37;;;;;;;21.70;20.27;;;;;;;;;;5142537;27;20958;-82
2022/10/23 00:25:05;;;;;;;21.40;20.20;;;;;;;;;;5142911;27;20402;-82
2022/10/23 00:27:34;;;;;;;21.20;19.80;;;;;;;;;;5143175;27;20442;-82
2022/10/23 00:30:01;;;;;;;21.17;19.87;;;;;;;;;;5144469;27;20413;-83
2022/10/23 00:32:29;;;;;;;21.30;19.73;;;;;;;;;;5142841;27;20422;-83
2022/10/23 00:34:56;;;;;;;20.43;19.33;;;;;;;;;;5143303;27;20418;-83
2022/10/23 00:37:24;;;;;;;24.07;21.93;;;;;;;;;;5144057;27;20812;-83
2022/10/23 00:39:51;;;;;;;22.03;20.43;;;;;;;;;;5143898;27;20413;-83
2022/10/23 00:42:19;;;;;;;21.60;20.10;;;;;;;;;;5143316;27;20458;-83
2022/10/23 00:45:05;;;;;;;20.87;19.33;;;;;;;;;;5143186;27;20446;-83
2022/10/23 00:47:34;;;;;;;22.37;20.97;;;;;;;;;;5143518;27;20454;-83
2022/10/23 00:50:01;;;;;;;23.37;21.33;;;;;;;;;;5143500;27;20422;-83
2022/10/23 00:52:30;;;;;;;21.97;20.77;;;;;;;;;;5142793;27;20769;-83
2022/10/23 00:54:57;;;;;;;22.77;21.10;;;;;;;;;;5143383;27;20413;-83
2022/10/23 00:57:25;;;;;;;23.30;21.53;;;;;;;;;;5143626;27;20965;-83
2022/10/23 00:59:53;;;;;;;23.33;21.57;;;;;;;;;;5143886;27;20465;-83
2022/10/23 01:02:20;;;;;;;22.17;20.87;;;;;;;;;;5143058;27;20442;-83
2022/10/23 01:04:49;;;;;;;22.40;20.60;;;;;;;;;;5142684;27;20440;-83
2022/10/23 01:07:19;;;;;;;21.63;20.23;;;;;;;;;;5143490;27;20935;-83
2022/10/23 01:09:51;;;;;;;21.43;20.00;;;;;;;;;;5143899;27;20505;-83
2022/10/23 01:12:23;;;;;;;21.90;20.40;;;;;;;;;;5141984;27;20946;-83
2022/10/23 01:14:57;;;;;;;20.43;19.33;;;;;;;;;;5143158;27;20413;-83
2022/10/23 01:17:26;;;;;;;22.97;21.27;;;;;;;;;;5142695;27;20951;-82
2022/10/23 01:20:02;;;;;;;21.67;20.00;;;;;;;;;;5142974;27;20429;-82
2022/10/23 01:22:38;;;;;;;22.23;20.53;;;;;;;;;;5142427;27;20413;-83
2022/10/23 01:25:13;;;;;;;21.07;19.90;;;;;;;;;;5142848;27;20412;-83
2022/10/23 01:27:43;;;;;;;20.40;19.40;;;;;;;;;;5142145;27;20437;-83
2022/10/23 01:30:11;;;;;;;21.37;20.20;;;;;;;;;;5141955;27;20430;-83
2022/10/23 01:32:43;;;;;;;21.03;19.57;;;;;;;;;;5142409;27;20448;-83
2022/10/23 01:35:13;;;;;;;22.43;20.40;;;;;;;;;;5142904;27;20386;-85
2022/10/23 01:37:43;;;;;;;21.27;20.00;;;;;;;;;;5142804;27;20441;-83
2022/10/23 01:40:12;;;;;;;20.77;19.47;;;;;;;;;;5142403;27;20448;-83
2022/10/23 01:42:45;;;;;;;21.60;20.20;;;;;;;;;;5141939;27;20466;-82
2022/10/23 01:45:15;;;;;;;21.70;20.40;;;;;;;;;;5142512;27;20451;-84
2022/10/23 01:47:43;;;;;;;21.03;19.70;;;;;;;;;;5141717;27;20458;-83
2022/10/23 01:50:11;;;;;;;20.17;19.17;;;;;;;;;;5142539;27;20447;-83
2022/10/23 01:52:38;;;;;;;19.90;18.80;;;;;;;;;;5140989;27;20991;-83
2022/10/23 01:55:08;;;;;;;21.00;19.83;;;;;;;;;;5141670;27;20429;-83
2022/10/23 01:57:36;;;;;;;20.73;19.63;;;;;;;;;;5141571;27;20439;-82
2022/10/23 02:00:07;;;;;;;21.13;19.73;;;;;;;;;;5142051;27;20933;-82
2022/10/23 02:02:35;;;;;;;21.37;19.73;;;;;;;;;;5140293;27;20930;-84
2022/10/23 02:05:04;;;;;;;19.67;18.67;;;;;;;;;;5140997;27;20405;-83
2022/10/23 02:07:31;;;;;;;20.50;18.97;;;;;;;;;;5140204;27;20446;-83
2022/10/23 02:09:59;;;;;;;21.43;19.70;;;;;;;;;;5140672;28;20420;-82
2022/10/23 02:12:30;;;;;;;20.23;19.07;;;;;;;;;;5140793;28;20433;-83
2022/10/23 02:14:59;;;;;;;21.40;20.20;;;;;;;;;;5140749;28;20761;-83
2022/10/23 02:17:31;;;;;;;20.03;18.93;;;;;;;;;;5140092;28;20946;-83
2022/10/23 02:20:01;;;;;;;21.23;19.53;;;;;;;;;;5141761;27;20463;-83
2022/10/23 02:22:30;;;;;;;20.10;18.70;;;;;;;;;;5140608;28;20416;-82
2022/10/23 02:25:00;;;;;;;19.60;18.60;;;;;;;;;;5141345;28;20428;-82
2022/10/23 02:27:31;;;;;;;19.20;18.10;;;;;;;;;;5140505;27;20475;-83
2022/10/23 02:30:02;;;;;;;19.70;18.70;;;;;;;;;;5140687;28;20402;-83
2022/10/23 02:32:31;;;;;;;21.43;19.67;;;;;;;;;;5139872;28;20446;-82
2022/10/23 02:34:59;;;;;;;22.20;20.47;;;;;;;;;;5140082;28;20414;-82
2022/10/23 02:37:26;;;;;;;19.60;18.40;;;;;;;;;;5139482;27;20873;-83
2022/10/23 02:39:54;;;;;;;20.23;18.83;;;;;;;;;;5140640;28;20910;-82
2022/10/23 02:42:24;;;;;;;19.40;18.40;;;;;;;;;;5139744;28;20443;-83
2022/10/23 02:44:56;;;;;;;19.67;18.47;;;;;;;;;;5140347;27;20439;-82
2022/10/23 02:47:31;;;;;;;19.80;18.70;;;;;;;;;;5139950;28;20406;-82
2022/10/23 02:50:04;;;;;;;19.73;18.63;;;;;;;;;;5140550;28;20427;-83
2022/10/23 02:52:34;;;;;;;20.50;19.20;;;;;;;;;;5138850;27;20460;-82
2022/10/23 02:55:06;;;;;;;19.57;18.47;;;;;;;;;;5140072;28;20402;-83
2022/10/23 02:57:35;;;;;;;19.77;18.37;;;;;;;;;;5140412;28;20431;-82
2022/10/23 03:00:06;;;;;;;19.13;18.13;;;;;;;;;;5140115;28;20453;-82
2022/10/23 03:02:37;;;;;;;20.17;18.47;;;;;;;;;;5139670;27;20815;-82
2022/10/23 03:05:07;;;;;;;20.00;19.00;;;;;;;;;;5140895;28;20457;-82
2022/10/23 03:07:35;;;;;;;20.30;18.40;;;;;;;;;;5140052;28;20435;-83
2022/10/23 03:10:02;;;;;;;19.10;18.10;;;;;;;;;;5140041;27;20414;-82
2022/10/23 03:12:29;;;;;;;19.40;18.30;;;;;;;;;;5139742;27;20927;-82
2022/10/23 03:14:57;;;;;;;20.63;19.30;;;;;;;;;;5140918;27;20437;-82
2022/10/23 03:17:25;;;;;;;20.93;19.57;;;;;;;;;;5141677;28;20428;-82
2022/10/23 03:19:52;;;;;;;20.07;18.97;;;;;;;;;;5143877;27;20485;-82
2022/10/23 03:22:21;;;;;;;20.67;19.00;;;;;;;;;;5143833;27;20466;-82
2022/10/23 03:24:48;;;;;;;20.07;18.63;;;;;;;;;;5143933;27;20921;-83
2022/10/23 03:27:16;;;;;;;20.70;19.50;;;;;;;;;;5143372;27;20818;-82
2022/10/23 03:29:43;;;;;;;19.20;18.20;;;;;;;;;;5144953;27;20450;-82
2022/10/23 03:32:10;;;;;;;19.70;18.70;;;;;;;;;;5143491;27;20427;-82
2022/10/23 03:34:38;;;;;;;18.93;17.93;;;;;;;;;;5143425;27;20846;-83
2022/10/23 03:37:06;;;;;;;19.27;18.20;;;;;;;;;;5143808;27;20466;-82
2022/10/23 03:39:35;;;;;;;19.47;18.47;;;;;;;;;;5143292;27;20534;-82
2022/10/23 03:42:02;;;;;;;19.87;18.43;;;;;;;;;;5143740;27;20451;-82
2022/10/23 03:44:30;;;;;;;20.13;19.13;;;;;;;;;;5143574;27;20470;-83
2022/10/23 03:46:57;;;;;;;20.33;19.07;;;;;;;;;;5143260;27;20506;-83
2022/10/23 03:49:25;;;;;;;20.57;19.37;;;;;;;;;;5143256;27;20409;-83
2022/10/23 03:51:52;;;;;;;20.20;18.60;;;;;;;;;;5143195;27;20417;-83
2022/10/23 03:54:20;;;;;;;20.03;19.03;;;;;;;;;;5143399;27;20437;-83
2022/10/23 03:56:49;;;;;;;19.07;17.87;;;;;;;;;;5143111;27;20421;-83
2022/10/23 03:59:17;;;;;;;19.90;18.70;;;;;;;;;;5143360;27;20479;-82
2022/10/23 04:01:44;;;;;;;19.97;18.60;;;;;;;;;;5141402;27;21080;-82
2022/10/23 04:04:12;;;;;;;19.80;18.40;;;;;;;;;;5142929;27;20433;-83
2022/10/23 04:06:39;;;;;;;21.03;19.30;;;;;;;;;;5142101;27;20428;-82
2022/10/23 04:09:07;;;;;;;19.20;18.10;;;;;;;;;;5141895;27;20416;-83
2022/10/23 04:11:35;;;;;;;19.40;18.50;;;;;;;;;;5140885;27;20445;-82
2022/10/23 04:14:04;;;;;;;19.80;18.53;;;;;;;;;;5142247;27;20460;-82
2022/10/23 04:16:31;;;;;;;18.73;17.90;;;;;;;;;;5141779;27;20406;-83
2022/10/23 04:18:58;;;;;;;18.90;17.90;;;;;;;;;;5142269;27;20449;-82
2022/10/23 04:21:26;;;;;;;19.80;18.60;;;;;;;;;;5141711;27;20446;-82
2022/10/23 04:23:53;;;;;;;20.03;18.50;;;;;;;;;;5141698;27;20845;-82
2022/10/23 04:26:20;;;;;;;20.13;18.63;;;;;;;;;;5141828;27;20524;-82
2022/10/23 04:28:47;;;;;;;21.07;18.83;;;;;;;;;;5142430;27;20819;-82
2022/10/23 04:31:16;;;;;;;19.07;18.17;;;;;;;;;;5140721;27;20417;-82
2022/10/23 04:33:44;;;;;;;21.13;19.10;;;;;;;;;;5141921;27;20494;-82
2022/10/23 04:36:11;;;;;;;20.93;19.67;;;;;;;;;;5142266;27;20454;-82
2022/10/23 04:38:38;;;;;;;21.40;20.10;;;;;;;;;;5142241;27;20432;-83
2022/10/23 04:41:06;;;;;;;23.53;22.10;;;;;;;;;;5141487;27;20421;-82
2022/10/23 04:43:33;;;;;;;23.37;21.50;;;;;;;;;;5141707;27;20455;-83
2022/10/23 04:46:00;;;;;;;22.40;20.90;;;;;;;;;;5141069;27;20474;-82
2022/10/23 04:48:29;;;;;;;21.37;19.70;;;;;;;;;;5142233;27;20945;-82
2022/10/23 04:50:57;;;;;;;20.63;19.43;;;;;;;;;;5141120;27;20491;-84
2022/10/23 04:53:25;;;;;;;21.53;20.00;;;;;;;;;;5141597;27;20452;-83
2022/10/23 04:55:52;;;;;;;20.30;19.10;;;;;;;;;;5141995;27;20450;-82
2022/10/23 04:58:19;;;;;;;21.37;20.17;;;;;;;;;;5141745;27;20450;-82
2022/10/23 05:00:48;;;;;;;19.63;18.37;;;;;;;;;;5141518;27;20465;-83
2022/10/23 05:03:15;;;;;;;20.53;19.40;;;;;;;;;;5141187;27;20819;-83
2022/10/23 05:05:44;;;;;;;20.00;19.00;;;;;;;;;;5141621;27;20443;-83
2022/10/23 05:08:12;;;;;;;20.53;19.37;;;;;;;;;;5141100;27;20419;-83
2022/10/23 05:10:40;;;;;;;20.37;18.97;;;;;;;;;;5141062;27;20475;-82
2022/10/23 05:13:08;;;;;;;20.40;19.13;;;;;;;;;;5141044;27;20456;-82
2022/10/23 05:15:35;;;;;;;20.40;19.20;;;;;;;;;;5141382;27;20821;-83
2022/10/23 05:18:05;;;;;;;20.17;18.77;;;;;;;;;;5141004;27;20443;-83
2022/10/23 05:20:34;;;;;;;21.03;19.37;;;;;;;;;;5141148;27;20473;-83
2022/10/23 05:23:03;;;;;;;21.50;20.10;;;;;;;;;;5140200;27;20452;-82
2022/10/23 05:25:31;;;;;;;22.10;20.43;;;;;;;;;;5140369;27;20443;-83
2022/10/23 05:27:58;;;;;;;20.97;19.77;;;;;;;;;;5140792;27;20442;-83
2022/10/23 05:30:25;;;;;;;21.00;19.90;;;;;;;;;;5140952;27;20454;-82
2022/10/23 05:32:53;;;;;;;21.27;19.97;;;;;;;;;;5139587;27;20457;-82
2022/10/23 05:35:22;;;;;;;22.47;20.70;;;;;;;;;;5140669;27;20435;-82
2022/10/23 05:37:52;;;;;;;23.07;21.43;;;;;;;;;;5140453;27;20447;-82
2022/10/23 05:40:21;;;;;;;22.40;20.70;;;;;;;;;;5140264;27;20967;-83
2022/10/23 05:42:48;;;;;;;21.30;19.80;;;;;;;;;;5138931;27;20445;-83
2022/10/23 05:45:16;;;;;;;21.10;20.00;;;;;;;;;;5140439;27;20462;-82
2022/10/23 05:47:44;;;;;;;21.83;20.10;;;;;;;;;;5140957;27;20428;-83
2022/10/23 05:50:12;;;;;;;20.97;19.67;;;;;;;;;;5140548;27;20804;-83
2022/10/23 05:52:39;;;;;;;20.17;18.97;;;;;;;;;;5139670;27;20454;-82
2022/10/23 05:55:07;;;;;;;20.50;19.40;;;;;;;;;;5140370;27;20431;-83
2022/10/23 05:57:36;;;;;;;21.53;20.30;;;;;;;;;;5140449;27;20464;-82
2022/10/23 06:00:04;;;;;;;20.40;19.50;;;;;;;;;;5140220;27;20465;-82
2022/10/23 06:02:31;;;;;;;21.27;20.20;;;;;;;;;;5139547;27;20416;-82
2022/10/23 06:04:58;;;;;;;20.00;18.73;;;;;;;;;;5141427;27;20417;-83
2022/10/23 06:07:25;;;;;;;20.47;19.00;;;;;;;;;;5141243;27;20431;-83
2022/10/23 06:09:53;;;;;;;20.67;19.27;;;;;;;;;;5140731;27;20446;-83
2022/10/23 06:12:20;;;;;;;19.23;18.10;;;;;;;;;;5140572;27;20429;-83
2022/10/23 06:14:49;;;;;;;20.03;18.87;;;;;;;;;;5141157;27;20466;-83
2022/10/23 06:17:16;;;;;;;19.50;18.40;;;;;;;;;;5136174;27;20406;-80
2022/10/23 06:19:44;;;;;;;19.63;18.60;;;;;;;;;;5135372;28;20464;-79
2022/10/23 06:22:11;;;;;;;21.70;20.17;;;;;;;;;;5135654;27;20445;-80
2022/10/23 06:24:39;;;;;;;20.10;18.70;;;;;;;;;;5135569;27;20489;-79
2022/10/23 06:27:06;;;;;;;24.27;19.60;;;;;;;;;;5135592;28;20406;-80
2022/10/23 06:29:33;;;;;;;20.63;19.40;;;;;;;;;;5135599;28;20900;-79
2022/10/23 06:32:02;;;;;;;19.93;18.73;;;;;;;;;;5135381;27;20851;-80
2022/10/23 06:34:29;;;;;;;19.40;18.50;;;;;;;;;;5136197;28;20467;-79
2022/10/23 06:36:57;;;;;;;20.10;19.00;;;;;;;;;;5135789;27;20422;-79
2022/10/23 06:39:24;;;;;;;20.23;18.93;;;;;;;;;;5135854;27;20855;-79
2022/10/23 06:41:52;;;;;;;19.13;18.20;;;;;;;;;;5135264;28;20470;-79
2022/10/23 06:44:19;;;;;;;20.10;19.00;;;;;;;;;;5135643;27;20444;-80
2022/10/23 06:46:46;;;;;;;18.97;17.73;;;;;;;;;;5136275;27;20453;-79
2022/10/23 06:49:16;;;;;;;19.80;18.70;;;;;;;;;;5136023;28;20450;-79
2022/10/23 06:51:43;;;;;;;19.83;18.83;;;;;;;;;;5134614;27;20430;-79
2022/10/23 06:54:11;;;;;;;21.60;20.00;;;;;;;;;;5137177;27;20437;-79
2022/10/23 06:56:39;;;;;;;19.80;18.90;;;;;;;;;;5139888;27;20792;-79
2022/10/23 06:59:08;;;;;;;20.90;19.80;;;;;;;;;;5139346;27;20424;-80
2022/10/23 07:01:35;;;;;;;20.10;19.10;;;;;;;;;;5139653;27;20421;-80
2022/10/23 07:04:02;;;;;;;21.27;20.03;;;;;;;;;;5138921;27;20481;-80
2022/10/23 07:06:31;;;;;;;21.47;20.37;;;;;;;;;;5139128;27;20470;-79
2022/10/23 07:09:00;;;;;;;20.90;19.67;;;;;;;;;;5139356;27;20438;-80
2022/10/23 07:11:27;;;;;;;21.10;19.70;;;;;;;;;;5138882;27;20919;-79
2022/10/23 07:13:54;;;;;;;21.53;19.87;;;;;;;;;;5138933;27;20449;-80
2022/10/23 07:16:23;;;;;;;21.40;20.17;;;;;;;;;;5138989;27;20437;-79
2022/10/23 07:18:51;;;;;;;20.83;19.63;;;;;;;;;;5138816;27;20455;-79
2022/10/23 07:21:18;;;;;;;21.00;19.80;;;;;;;;;;5136999;27;20470;-80
2022/10/23 07:23:47;;;;;;;21.53;20.23;;;;;;;;;;5139063;27;20445;-80
2022/10/23 07:26:15;;;;;;;20.50;19.50;;;;;;;;;;5138938;27;20429;-79
2022/10/23 07:28:45;;;;;;;20.80;19.53;;;;;;;;;;5138615;27;20424;-79
2022/10/23 07:31:12;;;;;;;21.37;20.03;;;;;;;;;;5138685;27;20410;-80
2022/10/23 07:33:40;;;;;;;20.90;19.17;;;;;;;;;;5138423;27;20478;-80
2022/10/23 07:36:09;;;;;;;20.90;19.70;;;;;;;;;;5138568;27;20454;-80
2022/10/23 07:38:36;;;;;;;20.43;19.33;;;;;;;;;;5138605;27;21101;-80
2022/10/23 07:41:05;;;;;;;20.27;19.27;;;;;;;;;;5138227;27;20478;-80
2022/10/23 07:43:34;;;;;;;20.47;19.37;;;;;;;;;;5138714;27;20434;-80
2022/10/23 07:46:01;;;;;;;20.90;19.70;;;;;;;;;;5139601;27;20489;-80
2022/10/23 07:48:29;;;;;;;19.70;18.70;;;;;;;;;;5139012;27;20454;-79
2022/10/23 07:50:59;;;;;;;19.20;18.00;;;;;;;;;;5138327;27;20436;-79
2022/10/23 07:53:27;;;;;;;20.07;18.97;;;;;;;;;;5138640;27;20565;-79
2022/10/23 07:55:54;;;;;;;19.90;18.80;;;;;;;;;;5138444;27;20925;-79
2022/10/23 07:58:23;;;;;;;24.37;22.03;;;;;;;;;;5138649;27;20534;-79
2022/10/23 08:00:54;;;;;;;18.40;17.60;;;;;;;;;;5138482;27;20478;-80
2022/10/23 08:03:22;;;;;;;19.37;18.00;;;;;;;;;;5137652;27;20963;-80
2022/10/23 08:05:50;;;;;;;18.70;17.57;;;;;;;;;;5138335;27;20438;-79
2022/10/23 08:08:17;;;;;;;18.63;17.47;;;;;;;;;;5138638;27;20769;-79
2022/10/23 08:10:44;;;;;;;17.83;16.83;;;;;;;;;;5139173;27;20443;-78
2022/10/23 08:13:13;;;;;;;17.70;16.80;;;;;;;;;;5137111;27;20967;-79
2022/10/23 08:15:43;;;;;;;17.80;16.67;;;;;;;;;;5138446;27;20875;-82
2022/10/23 08:18:10;;;;;;;17.10;16.33;;;;;;;;;;5138791;27;20520;-79
2022/10/23 08:20:41;;;;;;;17.87;16.70;;;;;;;;;;5138849;27;20460;-80
2022/10/23 08:23:11;;;;;;;16.63;15.73;;;;;;;;;;5138035;27;20464;-79
2022/10/23 08:25:38;;;;;;;17.83;16.80;;;;;;;;;;5138016;27;20937;-80
2022/10/23 08:28:06;;;;;;;17.77;16.83;;;;;;;;;;5138543;27;20782;-80
2022/10/23 08:30:33;;;;;;;18.00;16.90;;;;;;;;;;5138096;27;20438;-80
2022/10/23 08:33:03;;;;;;;18.93;18.03;;;;;;;;;;5137850;27;20479;-79
2022/10/23 08:35:30;;;;;;;16.90;15.70;;;;;;;;;;5137966;27;20913;-80
2022/10/23 08:37:57;;;;;;;17.50;16.37;;;;;;;;;;5138775;27;20402;-81
2022/10/23 08:40:25;;;;;;;16.83;15.93;;;;;;;;;;5137784;27;20912;-80
2022/10/23 08:42:58;;;;;;;17.30;16.40;;;;;;;;;;5137730;27;20437;-80
2022/10/23 08:45:30;;;;;;;16.63;15.80;;;;;;;;;;5139176;27;20483;-80
2022/10/23 08:48:00;;;;;;;16.83;16.13;;;;;;;;;;5139536;27;20885;-80
2022/10/23 08:50:30;;;;;;;17.17;16.37;;;;;;;;;;5138510;27;20430;-81
2022/10/23 08:53:01;;;;;;;19.20;17.50;;;;;;;;;;5138509;27;20844;-81
2022/10/23 08:55:31;;;;;;;16.80;16.00;;;;;;;;;;5138898;27;20786;-80
2022/10/23 08:58:02;;;;;;;16.50;15.70;;;;;;;;;;5137994;27;20426;-79
2022/10/23 09:00:29;;;;;;;17.50;16.60;;;;;;;;;;5136900;27;20452;-80
2022/10/23 09:02:56;;;;;;;17.13;16.03;;;;;;;;;;5135679;27;20943;-79
2022/10/23 09:05:27;;;;;;;16.90;15.90;;;;;;;;;;5136169;27;20433;-79
2022/10/23 09:08:19;;;;;;;16.47;15.50;;;;;;;;;;5136699;27;20480;-79
2022/10/23 09:10:52;;;;;;;23.87;21.87;;;;;;;;;;5125616;27;20421;-80
2022/10/23 09:13:29;;;;;;;18.07;16.80;;;;;;;;;;5135585;27;20462;-79
2022/10/23 09:15:59;;;;;;;17.63;16.60;;;;;;;;;;5136136;27;20427;-80
2022/10/23 09:18:26;;;;;;;17.47;16.10;;;;;;;;;;5136524;27;20444;-78
2022/10/23 09:20:53;;;;;;;18.37;17.20;;;;;;;;;;5136426;27;20488;-80
2022/10/23 09:23:22;;;;;;;18.17;17.07;;;;;;;;;;5136236;27;20480;-79
2022/10/23 09:25:55;;;;;;;17.00;16.10;;;;;;;;;;5136375;27;20428;-81
2022/10/23 09:28:24;;;;;;;20.80;19.50;;;;;;;;;;5136696;27;20406;-78
2022/10/23 09:30:51;;;;;;;19.60;18.70;;;;;;;;;;5136044;27;20446;-80
2022/10/23 09:33:20;;;;;;;17.17;15.80;;;;;;;;;;5135568;27;20491;-80
2022/10/23 09:35:55;;;;;;;19.10;18.10;;;;;;;;;;5135920;27;20468;-80
2022/10/23 09:38:27;;;;;;;20.47;19.47;;;;;;;;;;5136485;27;20421;-79
2022/10/23 09:40:55;;;;;;;17.40;16.50;;;;;;;;;;5135986;27;20447;-79
2022/10/23 09:43:26;;;;;;;17.23;16.23;;;;;;;;;;5135823;27;20472;-80
2022/10/23 09:46:00;;;;;;;16.70;15.90;;;;;;;;;;5136006;27;20421;-80
2022/10/23 09:48:27;;;;;;;18.03;16.93;;;;;;;;;;5135819;27;20402;-81
2022/10/23 09:50:56;;;;;;;17.17;16.17;;;;;;;;;;5135988;27;20428;-84
2022/10/23 09:53:27;;;;;;;18.57;17.40;;;;;;;;;;5135881;27;20474;-80
2022/10/23 09:55:57;;;;;;;17.37;16.37;;;;;;;;;;5135896;27;20448;-80
2022/10/23 09:58:28;;;;;;;16.83;15.93;;;;;;;;;;5136011;27;20459;-79
2022/10/23 10:00:55;;;;;;;16.80;15.97;;;;;;;;;;5135399;27;20488;-81
2022/10/23 10:03:23;;;;;;;17.23;16.33;;;;;;;;;;5135652;27;20883;-80
2022/10/23 10:05:55;;;;;;;16.63;15.73;;;;;;;;;;5135894;27;20431;-80
2022/10/23 10:08:25;;;;;;;16.63;15.63;;;;;;;;;;5135797;27;20453;-80
2022/10/23 10:10:54;;;;;;;17.00;15.97;;;;;;;;;;5135331;27;20473;-80
2022/10/23 10:13:30;;;;;;;16.70;15.80;;;;;;;;;;5135880;27;20884;-80
2022/10/23 10:15:59;;;;;;;16.70;15.93;;;;;;;;;;5136194;28;20398;-80
2022/10/23 10:18:29;;;;;;;17.33;16.43;;;;;;;;;;5136179;28;20447;-80
2022/10/23 10:21:00;;;;;;;17.03;16.13;;;;;;;;;;5134765;27;20461;-80
2022/10/23 10:23:30;;;;;;;18.03;16.67;;;;;;;;;;5135685;27;20463;-79
2022/10/23 10:26:03;;;;;;;17.60;16.60;;;;;;;;;;5136310;27;20440;-80
2022/10/23 10:28:46;;;;;;;17.53;16.30;;;;;;;;;;5138802;27;20432;-80
2022/10/23 10:31:19;;;;;;;17.70;16.60;;;;;;;;;;5140019;27;20407;-81
2022/10/23 10:33:50;;;;;;;16.83;16.00;;;;;;;;;;5139849;27;20571;-79
2022/10/23 10:36:28;;;;;;;18.13;17.13;;;;;;;;;;5140178;27;20512;-79
2022/10/23 10:38:58;;;;;;;17.87;16.97;;;;;;;;;;5140270;27;20460;-80
2022/10/23 10:41:38;;;;;;;18.80;17.70;;;;;;;;;;5139892;27;20480;-80
2022/10/23 10:44:13;;;;;;;18.00;17.00;;;;;;;;;;5139287;27;20492;-80
2022/10/23 10:46:44;;;;;;;18.33;17.20;;;;;;;;;;5140059;27;20419;-79
2022/10/23 10:49:13;;;;;;;17.93;16.90;;;;;;;;;;5139804;27;20449;-80
2022/10/23 10:51:44;;;;;;;18.13;17.13;;;;;;;;;;5139210;27;20423;-80
2022/10/23 10:54:19;;;;;;;17.80;16.80;;;;;;;;;;5139719;27;20475;-81
2022/10/23 10:56:48;;;;;;;17.93;17.10;;;;;;;;;;5139890;27;20414;-79
2022/10/23 10:59:21;;;;;;;17.80;16.90;;;;;;;;;;5139717;27;20440;-79
2022/10/23 11:01:52;;;;;;;18.67;17.67;;;;;;;;;;5141205;27;20455;-80
2022/10/23 11:04:23;;;;;;;18.50;17.50;;;;;;;;;;5141056;27;20506;-79
2022/10/23 11:06:52;;;;;;;17.90;17.00;;;;;;;;;;5142260;27;20430;-80
2022/10/23 11:09:22;;;;;;;18.70;17.60;;;;;;;;;;5141559;27;20481;-81
2022/10/23 11:11:50;;;;;;;19.07;18.00;;;;;;;;;;5141051;27;20442;-80
2022/10/23 11:14:19;;;;;;;18.80;17.80;;;;;;;;;;5139573;27;20451;-80
2022/10/23 11:16:49;;;;;;;19.13;17.93;;;;;;;;;;5138999;27;20485;-80
2022/10/23 11:19:20;;;;;;;18.53;17.33;;;;;;;;;;5139637;27;20446;-80
2022/10/23 11:21:49;;;;;;;18.73;17.17;;;;;;;;;;5138350;27;20456;-80
2022/10/23 11:24:43;;;;;;;19.10;17.67;;;;;;;;;;5139092;27;20458;-80
2022/10/23 11:27:15;;;;;;;18.03;17.03;;;;;;;;;;5114432;27;20839;-80
2022/10/23 11:29:56;;;;;;;19.07;17.80;;;;;;;;;;5138785;27;20441;-79
2022/10/23 11:32:30;;;;;;;18.43;17.53;;;;;;;;;;5138646;27;20445;-80
2022/10/23 11:35:07;;;;;;;19.23;18.10;;;;;;;;;;5138863;27;20806;-79
2022/10/23 11:37:35;;;;;;;18.20;17.20;;;;;;;;;;5138819;27;20418;-80
2022/10/23 11:40:05;;;;;;;18.47;17.37;;;;;;;;;;5137501;27;20476;-79
2022/10/23 11:42:33;;;;;;;19.17;18.07;;;;;;;;;;5138661;27;20488;-80
2022/10/23 11:45:02;;;;;;;18.07;17.20;;;;;;;;;;5138754;27;20433;-80
2022/10/23 11:47:32;;;;;;;20.03;18.93;;;;;;;;;;5138851;27;20428;-80
2022/10/23 11:50:12;;;;;;;19.07;17.80;;;;;;;;;;5138732;27;20471;-80
2022/10/23 11:52:41;;;;;;;19.80;18.60;;;;;;;;;;5138176;27;20461;-81
2022/10/23 11:55:17;;;;;;;20.23;19.10;;;;;;;;;;5138644;27;20428;-80
2022/10/23 11:57:44;;;;;;;19.33;18.33;;;;;;;;;;5138661;27;20786;-80
2022/10/23 12:00:21;;;;;;;21.40;20.00;;;;;;;;;;5138675;27;20612;-80
2022/10/23 12:02:51;;;;;;;21.10;19.90;;;;;;;;;;5136713;27;20473;-81
2022/10/23 12:05:28;;;;;;;18.60;17.50;;;;;;;;;;5138185;27;20447;-80
2022/10/23 12:07:57;;;;;;;18.70;17.80;;;;;;;;;;5138701;27;20813;-80
2022/10/23 12:10:28;;;;;;;19.37;18.17;;;;;;;;;;5138451;27;20428;-80
2022/10/23 12:12:56;;;;;;;18.47;17.57;;;;;;;;;;5137437;27;20531;-78
2022/10/23 12:15:26;;;;;;;19.20;18.30;;;;;;;;;;5137641;27;20470;-80
2022/10/23 12:17:55;;;;;;;19.50;18.40;;;;;;;;;;5137920;27;20911;-79
2022/10/23 12:20:36;;;;;;;18.80;17.80;;;;;;;;;;5138050;27;20458;-79
2022/10/23 12:23:13;;;;;;;20.70;19.50;;;;;;;;;;5137552;27;20502;-78
2022/10/23 12:25:45;;;;;;;19.73;18.63;;;;;;;;;;5137648;27;20437;-80
2022/10/23 12:28:20;;;;;;;19.03;18.00;;;;;;;;;;5138373;27;20563;-80
2022/10/23 12:30:56;;;;;;;18.87;17.87;;;;;;;;;;5137706;27;20441;-79
2022/10/23 12:33:27;;;;;;;19.30;18.20;;;;;;;;;;5137177;27;20537;-79
2022/10/23 12:36:09;;;;;;;19.40;18.30;;;;;;;;;;5137379;27;20476;-79
2022/10/23 12:38:42;;;;;;;18.73;17.77;;;;;;;;;;5136011;27;20453;-79
2022/10/23 12:41:12;;;;;;;19.43;18.33;;;;;;;;;;5137258;27;20415;-79
2022/10/23 12:43:40;;;;;;;19.77;18.67;;;;;;;;;;5137507;27;20937;-79
2022/10/23 12:46:18;;;;;;;18.63;17.53;;;;;;;;;;5136711;27;20439;-79
2022/10/23 12:48:49;;;;;;;18.70;17.80;;;;;;;;;;5137704;27;20489;-79
2022/10/23 12:51:22;;;;;;;18.17;17.27;;;;;;;;;;5135620;27;20425;-80
2022/10/23 12:53:49;;;;;;;19.30;18.10;;;;;;;;;;5137205;27;20444;-81
2022/10/23 12:56:16;;;;;;;19.53;18.10;;;;;;;;;;5137319;27;20404;-80
2022/10/23 12:58:48;;;;;;;19.87;18.87;;;;;;;;;;5137560;27;20939;-80
2022/10/23 13:01:24;;;;;;;19.70;18.70;;;;;;;;;;5136449;27;20466;-80
2022/10/23 13:03:52;;;;;;;19.13;18.10;;;;;;;;;;5137247;27;20472;-80
2022/10/23 13:06:20;;;;;;;20.23;19.13;;;;;;;;;;5137286;27;20448;-80
2022/10/23 13:08:48;;;;;;;19.40;18.20;;;;;;;;;;5136393;27;20474;-80
2022/10/23 13:11:17;;;;;;;20.03;18.93;;;;;;;;;;5136289;27;20449;-81
2022/10/23 13:13:44;;;;;;;19.43;18.33;;;;;;;;;;5136404;27;20480;-79
2022/10/23 13:16:15;;;;;;;24.83;23.03;;;;;;;;;;5137525;27;20451;-80
2022/10/23 13:18:43;;;;;;;21.10;19.90;;;;;;;;;;5137870;27;20460;-81
2022/10/23 13:21:16;;;;;;;19.33;18.03;;;;;;;;;;5136903;27;20811;-80
2022/10/23 13:23:43;;;;;;;19.90;18.70;;;;;;;;;;5136724;27;20451;-80
2022/10/23 13:26:24;;;;;;;20.03;18.80;;;;;;;;;;5136552;27;20450;-80
2022/10/23 13:28:52;;;;;;;19.47;18.47;;;;;;;;;;5136925;27;20763;-80
2022/10/23 13:31:31;;;;;;;20.23;19.00;;;;;;;;;;5136114;27;20468;-80
2022/10/23 13:34:17;;;;;;;19.03;18.03;;;;;;;;;;5136351;27;20476;-79
2022/10/23 13:36:51;;;;;;;18.73;17.83;;;;;;;;;;5136706;27;20412;-79
2022/10/23 13:39:23;;;;;;;18.20;17.30;;;;;;;;;;5135906;27;20469;-79
2022/10/23 13:41:50;;;;;;;19.13;18.13;;;;;;;;;;5135932;27;20480;-79
2022/10/23 13:44:19;;;;;;;19.03;17.93;;;;;;;;;;5135787;27;20491;-81
2022/10/23 13:46:47;;;;;;;19.67;18.60;;;;;;;;;;5136253;27;20443;-79
2022/10/23 13:49:16;;;;;;;19.67;18.30;;;;;;;;;;5135519;27;20472;-80
2022/10/23 13:51:46;;;;;;;20.17;18.70;;;;;;;;;;5136048;27;20428;-80
2022/10/23 13:54:15;;;;;;;19.87;18.77;;;;;;;;;;5136485;27;20469;-79
2022/10/23 13:56:42;;;;;;;19.43;18.23;;;;;;;;;;5136546;27;20455;-80
2022/10/23 13:59:11;;;;;;;19.10;18.10;;;;;;;;;;5136547;27;20463;-80
2022/10/23 14:01:38;;;;;;;19.90;18.37;;;;;;;;;;5135802;27;20461;-80
2022/10/23 14:04:06;;;;;;;19.30;18.30;;;;;;;;;;5135017;27;20488;-80
2022/10/23 14:06:36;;;;;;;19.97;18.97;;;;;;;;;;5135859;27;20823;-79
2022/10/23 14:09:04;;;;;;;19.60;18.50;;;;;;;;;;5136209;27;20518;-79
2022/10/23 14:11:31;;;;;;;20.20;19.00;;;;;;;;;;5135783;27;20428;-79
2022/10/23 14:13:59;;;;;;;19.60;18.50;;;;;;;;;;5135077;27;20511;-80
2022/10/23 14:16:27;;;;;;;19.30;18.20;;;;;;;;;;5136213;27;20418;-80
2022/10/23 14:18:54;;;;;;;20.00;18.70;;;;;;;;;;5135807;28;20440;-80
2022/10/23 14:21:22;;;;;;;19.67;18.33;;;;;;;;;;5135415;27;20473;-80
2022/10/23 14:23:52;;;;;;;20.17;19.07;;;;;;;;;;5135564;27;20947;-80
2022/10/23 14:26:20;;;;;;;19.40;18.30;;;;;;;;;;5135959;28;20444;-79
2022/10/23 14:28:48;;;;;;;19.73;18.37;;;;;;;;;;5136046;27;20774;-79